Menu Close Menu
Station Historical Data
Daily Summary for April 21, 2017 Units:  Metric    English   Both
« Previous Day
Next Day »
Daily Weekly Monthly Yearly Custom
  High: Low: Average:
Temperature: 30.4 °C 17.2 °C 23.5 °C
Dew Point: 17.8 °C 13.8 °C 15.7 °C
Humidity: 92% 39% 64%
Wind Speed: 3.2km/h 0km/h 0.2km/h
Wind Gust: 9.7km/h - -
Wind- - West
Pressure: 1018.5 hPa 1011.7 hPa -
Precipitation: 0 mm    
Historical Graphs
 
 
Tabular Data for April 21, 2017
Time Temperature Dew Point Pressure Wind Wind Speed Wind Gust Humidity Rainfall Rate (Hourly) solar Conditions
00:00 20.6 °C 17.2 °C 1018.2 hPa Calm     81% 0 mm WeatherDisplay:10.37 W/m2 SCT
00:15 20.4 °C 17.1 °C 1018.2 hPa Calm     81% 0 mm WeatherDisplay:10.37 W/m2 SCT
00:30 20.4 °C 17.1 °C 1018.2 hPa Calm   1.6 km/h 81% 0 mm WeatherDisplay:10.37 W/m2 SCT
00:45 20.4 °C 17 °C 1018.2 hPa Calm     81% 0 mm WeatherDisplay:10.37 W/m2 SCT
01:00 20.2 °C 17.1 °C 1018.5 hPa Calm     82% 0 mm WeatherDisplay:10.37 W/m2 SCT
01:15 20.4 °C 17.1 °C 1018.5 hPa Calm     81% 0 mm WeatherDisplay:10.37 W/m2 SCT
01:30 20.4 °C 17 °C 1018.2 hPa Calm     81% 0 mm WeatherDisplay:10.37 W/m2 SCT
01:45 20.2 °C 17.1 °C 1017.8 hPa Calm     82% 0 mm WeatherDisplay:10.37 W/m2 SCT
02:00 20.2 °C 17.2 °C 1017.5 hPa Calm     83% 0 mm WeatherDisplay:10.37 W/m2 SCT
02:15 19.8 °C 16.8 °C 1017.5 hPa Calm   1.6 km/h 83% 0 mm WeatherDisplay:10.37 W/m2 SCT
02:30 19.4 °C 16.8 °C 1017.2 hPa Calm     85% 0 mm WeatherDisplay:10.37 W/m2 SCT
02:45 19.2 °C 16.6 °C 1017.2 hPa Calm     85% 0 mm WeatherDisplay:10.37 W/m2 SCT
03:00 18.9 °C 16.6 °C 1017.2 hPa Calm     86% 0 mm WeatherDisplay:10.37 W/m2 SCT
03:15 18.2 °C 15.8 °C 1016.8 hPa Calm     86% 0 mm WeatherDisplay:10.37 W/m2 SCT
03:30 18.2 °C 15.8 °C 1017.2 hPa Calm     86% 0 mm WeatherDisplay:10.37 W/m2 SCT
03:45 18.2 °C 15.8 °C 1016.8 hPa Calm     86% 0 mm WeatherDisplay:10.37 W/m2 SCT
04:00 18.2 °C 15.8 °C 1016.8 hPa Calm     86% 0 mm WeatherDisplay:10.37 W/m2 SCT
04:15 18.2 °C 15.8 °C 1016.8 hPa Calm     86% 0 mm WeatherDisplay:10.37 W/m2 SCT
04:30 18.2 °C 15.8 °C 1016.8 hPa Calm     86% 0 mm WeatherDisplay:10.37 W/m2 SCT
04:45 18.2 °C 15.8 °C 1016.8 hPa Calm     86% 0 mm WeatherDisplay:10.37 W/m2 SCT
05:00 18.2 °C 15.8 °C 1016.8 hPa Calm     86% 0 mm WeatherDisplay:10.37 W/m2 SCT
05:15 18.2 °C 15.8 °C 1016.8 hPa Calm     86% 0 mm WeatherDisplay:10.37 W/m2 SCT
05:30 18.2 °C 15.8 °C 1016.5 hPa Calm     86% 0 mm WeatherDisplay:10.37 W/m2 SCT
05:45 18.2 °C 15.8 °C 1016.8 hPa Calm     86% 0 mm WeatherDisplay:10.37 W/m2 SCT
06:00 18.2 °C 15.8 °C 1016.8 hPa Calm     86% 0 mm WeatherDisplay:10.37 W/m2 SCT
06:15 18.2 °C 15.8 °C 1016.8 hPa Calm     86% 0 mm WeatherDisplay:10.37 W/m2 SCT
06:30 18.2 °C 15.8 °C 1016.8 hPa Calm     86% 0 mm WeatherDisplay:10.37 W/m2 SCT
06:45 18.2 °C 15.8 °C 1016.8 hPa Calm     86% 0 mm WeatherDisplay:10.37 W/m2 SCT
07:00 18.2 °C 15.8 °C 1016.8 hPa Calm     86% 0 mm WeatherDisplay:10.37 W/m2 SCT
07:15 18.2 °C 15.8 °C 1017.2 hPa Calm     86% 0 mm WeatherDisplay:10.37 W/m2 SCT
07:30 18.2 °C 15.8 °C 1017.2 hPa Calm     86% 0 mm WeatherDisplay:10.37 W/m2 SCT
07:45 18.2 °C 15.8 °C 1017.2 hPa Calm     86% 0 mm WeatherDisplay:10.37 W/m2 SCT
08:00 17.2 °C 15.8 °C 1017.5 hPa Calm     92% 0 mm WeatherDisplay:10.37 W/m2 SCT
08:15 17.9 °C 16.6 °C 1017.5 hPa Calm     92% 0 mm WeatherDisplay:10.37 W/m2 SCT
08:30 18.9 °C 17.1 °C 1017.2 hPa Calm     89% 0 mm WeatherDisplay:10.37 W/m2 SCT
08:45 19.8 °C 17.2 °C 1017.2 hPa Calm   1.6 km/h 85% 0 mm WeatherDisplay:10.37 W/m2 SCT
09:00 21.5 °C 17.5 °C 1017.2 hPa Calm     78% 0 mm WeatherDisplay:10.37 W/m2 SCT
09:15 23.1 °C 17.8 °C 1016.8 hPa Calm     72% 0 mm WeatherDisplay:10.37 W/m2 SCT
09:30 23.8 °C 17.3 °C 1016.8 hPa Calm   1.6 km/h 67% 0 mm WeatherDisplay:10.37 W/m2 SCT
09:45 24.6 °C 17.1 °C 1016.8 hPa Calm   3.2 km/h 63% 0 mm WeatherDisplay:10.37 W/m2 SCT
10:00 25.4 °C 16.5 °C 1016.8 hPa WSW 1.6 km/h 3.2 km/h 58% 0 mm WeatherDisplay:10.37 W/m2 SCT
10:15 26.1 °C 16.7 °C 1016.8 hPa Calm   3.2 km/h 56% 0 mm WeatherDisplay:10.37 W/m2 SCT
10:30 26.5 °C 17 °C 1016.8 hPa Calm   3.2 km/h 56% 0 mm WeatherDisplay:10.37 W/m2 SCT
10:45 26.4 °C 16.7 °C 1016.8 hPa Calm   3.2 km/h 55% 0 mm WeatherDisplay:10.37 W/m2 SCT
11:00 26.6 °C 16.5 °C 1016.8 hPa WSW 1.6 km/h 4.8 km/h 54% 0 mm WeatherDisplay:10.37 W/m2 SCT
11:15 26.9 °C 15.3 °C 1016.8 hPa SW 1.6 km/h 8 km/h 49% 0 mm WeatherDisplay:10.37 W/m2 SCT
11:30 27.4 °C 15.8 °C 1016.8 hPa Calm   3.2 km/h 49% 0 mm WeatherDisplay:10.37 W/m2 SCT
11:45 27.7 °C 15.7 °C 1016.8 hPa Calm   4.8 km/h 48% 0 mm WeatherDisplay:10.37 W/m2 SCT
12:00 28.4 °C 16.7 °C 1016.5 hPa Calm   3.2 km/h 49% 0 mm WeatherDisplay:10.37 W/m2 SCT
12:15 27.9 °C 15.6 °C 1016.5 hPa Calm   9.7 km/h 47% 0 mm WeatherDisplay:10.37 W/m2 SCT
12:30 28.7 °C 15.3 °C 1016.5 hPa SW 1.6 km/h 8 km/h 44% 0 mm WeatherDisplay:10.37 W/m2 SCT
12:45 28.9 °C 14.7 °C 1016.1 hPa WSW 1.6 km/h 8 km/h 42% 0 mm WeatherDisplay:10.37 W/m2 SCT
13:00 29.1 °C 15.3 °C 1016.1 hPa Calm   8 km/h 43% 0 mm WeatherDisplay:10.37 W/m2 SCT
13:15 28.6 °C 15.1 °C 1015.8 hPa North 1.6 km/h 4.8 km/h 44% 0 mm WeatherDisplay:10.37 W/m2 SCT
13:30 29.1 °C 15.6 °C 1015.5 hPa West 3.2 km/h 8 km/h 44% 0 mm WeatherDisplay:10.37 W/m2 SCT
13:45 28.8 °C 14.2 °C 1015.1 hPa West 1.6 km/h 3.2 km/h 41% 0 mm WeatherDisplay:10.37 W/m2 SCT
14:00 29.2 °C 14.9 °C 1014.8 hPa Calm   1.6 km/h 42% 0 mm WeatherDisplay:10.37 W/m2 SCT
14:15 30.3 °C 15.6 °C 1014.8 hPa Calm   3.2 km/h 41% 0 mm WeatherDisplay:10.37 W/m2 SCT
14:30 30.4 °C 14.9 °C 1014.4 hPa NW 1.6 km/h 4.8 km/h 39% 0 mm WeatherDisplay:10.37 W/m2 SCT
14:45 30.2 °C 14.7 °C 1014.1 hPa Calm   3.2 km/h 39% 0 mm WeatherDisplay:10.37 W/m2 SCT
15:00 29.3 °C 14.7 °C 1013.8 hPa Calm   3.2 km/h 41% 0 mm WeatherDisplay:10.37 W/m2 SCT
15:15 28.8 °C 15.4 °C 1013.4 hPa Calm   8 km/h 44% 0 mm WeatherDisplay:10.37 W/m2 SCT
15:30 28.9 °C 14 °C 1013.1 hPa Calm   4.8 km/h 40% 0 mm WeatherDisplay:10.37 W/m2 SCT
15:45 29.2 °C 14.2 °C 1013.1 hPa Calm   3.2 km/h 40% 0 mm WeatherDisplay:10.37 W/m2 SCT
16:00 29.2 °C 13.8 °C 1012.8 hPa NW 1.6 km/h 3.2 km/h 39% 0 mm WeatherDisplay:10.37 W/m2 SCT
16:15 29 °C 14.8 °C 1012.4 hPa Calm   3.2 km/h 42% 0 mm WeatherDisplay:10.37 W/m2 SCT
16:30 28.4 °C 14.7 °C 1012.1 hPa Calm   1.6 km/h 43% 0 mm WeatherDisplay:10.37 W/m2 SCT
16:45 28.2 °C 15.2 °C 1012.1 hPa Calm   1.6 km/h 45% 0 mm WeatherDisplay:10.37 W/m2 SCT
17:00 27.7 °C 15.4 °C 1012.1 hPa Calm     47% 0 mm WeatherDisplay:10.37 W/m2 SCT
17:15 27.7 °C 15.1 °C 1011.7 hPa Calm   1.6 km/h 46% 0 mm WeatherDisplay:10.37 W/m2 SCT
17:30 28.7 °C 14.2 °C 1011.7 hPa Calm   3.2 km/h 41% 0 mm WeatherDisplay:10.37 W/m2 SCT
17:45 29.1 °C 14.1 °C 1012.1 hPa Calm   1.6 km/h 40% 0 mm WeatherDisplay:10.37 W/m2 SCT
18:00 28.4 °C 14.9 °C 1011.7 hPa Calm   3.2 km/h 44% 0 mm WeatherDisplay:10.37 W/m2 SCT
18:15 28.2 °C 15.1 °C 1012.1 hPa Calm   3.2 km/h 45% 0 mm WeatherDisplay:10.37 W/m2 SCT
18:30 27.8 °C 14.7 °C 1012.1 hPa Calm   8 km/h 45% 0 mm WeatherDisplay:10.37 W/m2 SCT
18:45 27.4 °C 14.7 °C 1012.1 hPa Calm   3.2 km/h 46% 0 mm WeatherDisplay:10.37 W/m2 SCT
19:00 26.9 °C 15.3 °C 1012.1 hPa Calm   3.2 km/h 49% 0 mm WeatherDisplay:10.37 W/m2 SCT
19:15 26.6 °C 14.9 °C 1012.1 hPa Calm   4.8 km/h 49% 0 mm WeatherDisplay:10.37 W/m2 SCT
19:30 26.2 °C 15.2 °C 1012.1 hPa Calm   1.6 km/h 51% 0 mm WeatherDisplay:10.37 W/m2 SCT
19:45 25.6 °C 15.3 °C 1012.1 hPa Calm   1.6 km/h 53% 0 mm WeatherDisplay:10.37 W/m2 SCT
20:00 25.1 °C 15.4 °C 1012.1 hPa Calm     55% 0 mm WeatherDisplay:10.37 W/m2 SCT
20:15 24.6 °C 15.6 °C 1012.4 hPa Calm     57% 0 mm WeatherDisplay:10.37 W/m2 SCT
20:30 24.2 °C 15.1 °C 1012.4 hPa Calm     57% 0 mm WeatherDisplay:10.37 W/m2 SCT
20:45 23.8 °C 15 °C 1012.8 hPa Calm     58% 0 mm WeatherDisplay:10.37 W/m2 SCT
21:00 23.3 °C 15.1 °C 1012.8 hPa Calm     60% 0 mm WeatherDisplay:10.37 W/m2 SCT
21:30 22.5 °C 14.8 °C 1013.1 hPa Calm     62% 0 mm WeatherDisplay:10.37 W/m2 SCT
21:45 22.2 °C 15 °C 1013.1 hPa Calm     64% 0 mm WeatherDisplay:10.37 W/m2 SCT
22:00 21.9 °C 14.7 °C 1012.8 hPa Calm     64% 0 mm WeatherDisplay:10.37 W/m2 SCT
22:15 21.6 °C 15 °C 1012.8 hPa Calm     66% 0 mm WeatherDisplay:10.37 W/m2 SCT
22:30 21.4 °C 14.6 °C 1013.1 hPa Calm     65% 0 mm WeatherDisplay:10.37 W/m2 SCT
22:45 21.3 °C 14.7 °C 1013.1 hPa Calm     66% 0 mm WeatherDisplay:10.37 W/m2 SCT
23:00 21 °C 14.6 °C 1013.1 hPa Calm     67% 0 mm WeatherDisplay:10.37 W/m2 SCT
23:15 20.7 °C 14.6 °C 1013.1 hPa Calm     68% 0 mm WeatherDisplay:10.37 W/m2 SCT
23:30 20.6 °C 14.4 °C 1013.1 hPa Calm     68% 0 mm WeatherDisplay:10.37 W/m2 SCT
23:45 20.3 °C 14.6 °C 1013.1 hPa Calm     70% 0 mm WeatherDisplay:10.37 W/m2 SCT
Piedmont Bend
Compliments of Weather Underground - 4 mb